Time;durP1;ratioP1;P1;durP2;ratioP2;P2;SDS_P1;SDS_P2;PMS_P1;PMS_P2;Temp;Humidity;BMP_temperature;BMP_pressure;BME280_temperature;BME280_humidity;BME280_pressure;Samples;Min_cycle;Max_cycle;Signal;HPM_P1;HPM_P2
2024/04/20 00:00:51;;;;;;;18.83;6.15;;;;;;;;;;5182940;27;20031;-80
2024/04/20 00:03:24;;;;;;;17.92;6.15;;;;;;;;;;5210922;27;20032;-80
2024/04/20 00:05:54;;;;;;;15.10;6.18;;;;;;;;;;5210440;27;20027;-82
2024/04/20 00:08:25;;;;;;;15.00;5.95;;;;;;;;;;5210716;27;20155;-79
2024/04/20 00:10:55;;;;;;;19.30;5.65;;;;;;;;;;5211045;27;20020;-81
2024/04/20 00:13:24;;;;;;;18.13;6.15;;;;;;;;;;5210629;27;20020;-81
2024/04/20 00:15:55;;;;;;;15.70;5.80;;;;;;;;;;5209725;27;20032;-81
2024/04/20 00:18:25;;;;;;;16.45;5.72;;;;;;;;;;5186262;27;20044;-80
2024/04/20 00:20:55;;;;;;;19.52;5.63;;;;;;;;;;5213514;27;20044;-80
2024/04/20 00:23:25;;;;;;;21.88;6.63;;;;;;;;;;5215361;27;20023;-81
2024/04/20 00:25:55;;;;;;;14.10;5.95;;;;;;;;;;5242839;27;20023;-80
2024/04/20 00:28:25;;;;;;;15.07;6.03;;;;;;;;;;5243346;27;20035;-79
2024/04/20 00:31:02;;;;;;;20.05;6.03;;;;;;;;;;5243985;27;20031;-79
2024/04/20 00:33:33;;;;;;;17.02;5.85;;;;;;;;;;5243758;27;20023;-79
2024/04/20 00:36:03;;;;;;;16.88;6.75;;;;;;;;;;5243814;27;20023;-81
2024/04/20 00:38:33;;;;;;;13.52;5.68;;;;;;;;;;5214074;27;20023;-80
2024/04/20 00:41:04;;;;;;;11.85;5.32;;;;;;;;;;5243030;27;20031;-81
2024/04/20 00:43:34;;;;;;;15.30;5.38;;;;;;;;;;5243928;27;20450;-80
2024/04/20 00:46:06;;;;;;;11.23;5.18;;;;;;;;;;5243622;27;20019;-79
2024/04/20 00:48:39;;;;;;;14.65;6.00;;;;;;;;;;5243168;27;20023;-79
2024/04/20 00:51:09;;;;;;;13.73;5.15;;;;;;;;;;5243185;27;20019;-80
2024/04/20 00:53:40;;;;;;;12.93;6.20;;;;;;;;;;5213229;27;20023;-80
2024/04/20 00:56:12;;;;;;;14.23;5.38;;;;;;;;;;5243384;27;20019;-80
2024/04/20 00:58:46;;;;;;;17.65;5.97;;;;;;;;;;5213924;27;20023;-79
2024/04/20 01:01:19;;;;;;;14.23;6.05;;;;;;;;;;5243704;27;20032;-80
2024/04/20 01:03:50;;;;;;;15.10;5.75;;;;;;;;;;5216451;27;20027;-79
2024/04/20 01:06:22;;;;;;;22.38;5.88;;;;;;;;;;5246527;27;20023;-80
2024/04/20 01:08:52;;;;;;;12.50;5.25;;;;;;;;;;5246705;27;20023;-80
2024/04/20 01:11:22;;;;;;;14.20;6.03;;;;;;;;;;5216949;27;20023;-80
2024/04/20 01:13:55;;;;;;;15.85;5.55;;;;;;;;;;5219570;27;20038;-80
2024/04/20 01:16:26;;;;;;;13.38;5.38;;;;;;;;;;5280038;27;20018;-80
2024/04/20 01:18:56;;;;;;;15.48;6.47;;;;;;;;;;5249879;27;20361;-80
2024/04/20 01:21:26;;;;;;;14.27;6.22;;;;;;;;;;5280112;27;20374;-80
2024/04/20 01:24:02;;;;;;;12.45;5.28;;;;;;;;;;5279974;27;20035;-80
2024/04/20 01:26:32;;;;;;;13.15;5.45;;;;;;;;;;5250691;27;20030;-82
2024/04/20 01:29:02;;;;;;;14.68;5.10;;;;;;;;;;5277532;27;20026;-80
2024/04/20 01:31:32;;;;;;;19.10;5.38;;;;;;;;;;5247999;27;20026;-80
2024/04/20 01:34:02;;;;;;;14.93;5.28;;;;;;;;;;5279915;27;20026;-81
2024/04/20 01:36:32;;;;;;;13.18;5.40;;;;;;;;;;5279006;27;20018;-80
2024/04/20 01:39:02;;;;;;;15.88;6.78;;;;;;;;;;5250740;27;20023;-79
2024/04/20 01:41:33;;;;;;;14.65;6.00;;;;;;;;;;5281889;27;20034;-80
2024/04/20 01:44:03;;;;;;;12.48;5.40;;;;;;;;;;5288040;27;20005;-82
2024/04/20 01:46:33;;;;;;;12.57;5.72;;;;;;;;;;5287644;27;20009;-80
2024/04/20 01:49:03;;;;;;;14.90;5.90;;;;;;;;;;5281397;27;20026;-80
2024/04/20 01:51:34;;;;;;;24.60;4.75;;;;;;;;;;5250059;27;20470;-80
2024/04/20 01:54:06;;;;;;;11.10;4.97;;;;;;;;;;5279517;27;20022;-82
2024/04/20 01:56:38;;;;;;;15.52;5.18;;;;;;;;;;5223689;27;20485;-80
2024/04/20 01:59:08;;;;;;;20.08;5.20;;;;;;;;;;5279850;27;20018;-80
2024/04/20 02:01:41;;;;;;;15.48;5.63;;;;;;;;;;5249221;27;20031;-79
2024/04/20 02:04:11;;;;;;;12.98;5.38;;;;;;;;;;5279692;27;20027;-80
2024/04/20 02:06:41;;;;;;;12.48;5.05;;;;;;;;;;5249680;27;20384;-80
2024/04/20 02:09:11;;;;;;;10.55;4.82;;;;;;;;;;5279735;27;20018;-80
2024/04/20 02:11:44;;;;;;;11.43;5.20;;;;;;;;;;5251020;27;20023;-80
2024/04/20 02:14:14;;;;;;;13.18;6.97;;;;;;;;;;5277870;27;20364;-82
2024/04/20 02:16:44;;;;;;;12.68;5.00;;;;;;;;;;5279561;27;20026;-80
2024/04/20 02:19:14;;;;;;;14.80;4.88;;;;;;;;;;5278520;27;20025;-81
2024/04/20 02:21:44;;;;;;;15.23;5.57;;;;;;;;;;5249549;27;20026;-80
2024/04/20 02:24:14;;;;;;;15.55;5.40;;;;;;;;;;5278842;27;20461;-81
2024/04/20 02:26:45;;;;;;;12.23;5.45;;;;;;;;;;5279307;27;20019;-81
2024/04/20 02:29:16;;;;;;;12.35;5.13;;;;;;;;;;5250001;27;20030;-82
2024/04/20 02:31:47;;;;;;;14.23;5.20;;;;;;;;;;5279310;27;20022;-80
2024/04/20 02:34:17;;;;;;;14.80;6.15;;;;;;;;;;5278995;27;20026;-82
2024/04/20 02:36:47;;;;;;;17.33;6.05;;;;;;;;;;5278250;27;20022;-81
2024/04/20 02:39:17;;;;;;;14.88;5.57;;;;;;;;;;5250257;27;20018;-81
2024/04/20 02:41:48;;;;;;;17.55;6.25;;;;;;;;;;5248766;27;20039;-81
2024/04/20 02:44:18;;;;;;;11.75;5.38;;;;;;;;;;5248671;27;20026;-80
2024/04/20 02:46:47;;;;;;;17.45;6.05;;;;;;;;;;5279199;27;20018;-81
2024/04/20 02:49:17;;;;;;;11.32;5.50;;;;;;;;;;5279054;27;20023;-80
2024/04/20 02:51:48;;;;;;;13.23;5.80;;;;;;;;;;5279289;27;20031;-81
2024/04/20 02:54:19;;;;;;;16.35;5.65;;;;;;;;;;5279025;27;20026;-81
2024/04/20 02:56:49;;;;;;;15.38;5.90;;;;;;;;;;5249732;27;20018;-81
2024/04/20 02:59:18;;;;;;;17.63;5.53;;;;;;;;;;5249393;27;20354;-80
2024/04/20 03:01:49;;;;;;;13.68;4.97;;;;;;;;;;5249145;27;20027;-81
2024/04/20 03:04:19;;;;;;;14.13;5.00;;;;;;;;;;5278172;27;20370;-81
2024/04/20 03:06:48;;;;;;;16.05;5.55;;;;;;;;;;5277865;27;20023;-82
2024/04/20 03:09:19;;;;;;;17.10;5.97;;;;;;;;;;5277581;27;20035;-80
2024/04/20 03:11:49;;;;;;;15.52;5.68;;;;;;;;;;5250019;27;20376;-79
2024/04/20 03:14:20;;;;;;;15.40;5.47;;;;;;;;;;5278781;27;20022;-80
2024/04/20 03:16:51;;;;;;;16.30;6.40;;;;;;;;;;5248316;27;20018;-81
2024/04/20 03:19:22;;;;;;;14.50;5.38;;;;;;;;;;5221355;27;20414;-80
2024/04/20 03:21:53;;;;;;;12.13;5.25;;;;;;;;;;5278870;27;20350;-79
2024/04/20 03:24:23;;;;;;;17.90;5.25;;;;;;;;;;5278507;27;20026;-80
2024/04/20 03:26:53;;;;;;;13.93;5.63;;;;;;;;;;5247669;27;20031;-80
2024/04/20 03:29:27;;;;;;;13.05;5.40;;;;;;;;;;5278843;27;20022;-80
2024/04/20 03:31:58;;;;;;;11.45;5.55;;;;;;;;;;5278571;27;20018;-80
2024/04/20 03:34:28;;;;;;;12.82;5.25;;;;;;;;;;5278458;27;20469;-80
2024/04/20 03:36:58;;;;;;;11.93;5.25;;;;;;;;;;5248989;27;20018;-80
2024/04/20 03:39:29;;;;;;;13.38;5.15;;;;;;;;;;5278365;27;20022;-81
2024/04/20 03:42:00;;;;;;;13.25;4.95;;;;;;;;;;5248512;27;20030;-80
2024/04/20 03:44:30;;;;;;;11.05;5.07;;;;;;;;;;5247229;27;20030;-80
2024/04/20 03:46:59;;;;;;;10.90;5.43;;;;;;;;;;5276734;27;20023;-81
2024/04/20 03:49:30;;;;;;;18.50;5.68;;;;;;;;;;5277448;27;20018;-80
2024/04/20 03:52:04;;;;;;;13.52;6.10;;;;;;;;;;5278003;27;20031;-79
2024/04/20 03:54:35;;;;;;;16.40;6.55;;;;;;;;;;5249394;27;20022;-80
2024/04/20 03:57:05;;;;;;;13.77;6.38;;;;;;;;;;5277781;27;20517;-79
2024/04/20 03:59:35;;;;;;;16.30;6.60;;;;;;;;;;5277922;27;20502;-79
2024/04/20 04:02:04;;;;;;;12.32;6.38;;;;;;;;;;5248000;27;20022;-80
2024/04/20 04:04:36;;;;;;;15.07;7.18;;;;;;;;;;5278352;27;20022;-80
2024/04/20 04:07:06;;;;;;;14.50;6.47;;;;;;;;;;5247980;27;20038;-80
2024/04/20 04:09:36;;;;;;;18.38;6.15;;;;;;;;;;5277938;27;20023;-81
2024/04/20 04:12:06;;;;;;;13.85;6.18;;;;;;;;;;5277080;27;20019;-80
2024/04/20 04:14:36;;;;;;;16.33;5.68;;;;;;;;;;5276847;27;20038;-80
2024/04/20 04:17:07;;;;;;;14.07;6.00;;;;;;;;;;5276975;27;20023;-79
2024/04/20 04:19:37;;;;;;;15.88;6.05;;;;;;;;;;5247539;27;20030;-80
2024/04/20 04:22:07;;;;;;;14.50;6.25;;;;;;;;;;5193385;27;20023;-79
2024/04/20 04:24:37;;;;;;;13.20;5.32;;;;;;;;;;5247214;27;20446;-80
2024/04/20 04:27:16;;;;;;;11.38;5.30;;;;;;;;;;5248542;27;20022;-80
2024/04/20 04:29:48;;;;;;;13.45;5.25;;;;;;;;;;5247631;27;20027;-79
2024/04/20 04:32:18;;;;;;;16.55;6.35;;;;;;;;;;5277417;27;20360;-81
2024/04/20 04:34:49;;;;;;;15.18;5.68;;;;;;;;;;5246683;27;20469;-80
2024/04/20 04:37:19;;;;;;;14.18;5.55;;;;;;;;;;5278054;27;20027;-80
2024/04/20 04:39:51;;;;;;;19.08;5.75;;;;;;;;;;5280756;27;20018;-80
2024/04/20 04:42:21;;;;;;;12.57;5.43;;;;;;;;;;5252112;27;20023;-79
2024/04/20 04:44:51;;;;;;;11.60;5.10;;;;;;;;;;5280625;27;20461;-80
2024/04/20 04:47:22;;;;;;;12.82;5.93;;;;;;;;;;5251402;27;20019;-79
2024/04/20 04:49:52;;;;;;;15.13;5.97;;;;;;;;;;5280393;27;20023;-80
2024/04/20 04:52:22;;;;;;;10.65;5.63;;;;;;;;;;5250636;27;20035;-80
2024/04/20 04:54:52;;;;;;;12.40;5.82;;;;;;;;;;5280533;27;20022;-79
2024/04/20 04:57:22;;;;;;;17.08;4.82;;;;;;;;;;5281230;27;20018;-79
2024/04/20 04:59:52;;;;;;;11.48;5.85;;;;;;;;;;5280526;27;20022;-81
2024/04/20 05:02:22;;;;;;;13.02;5.55;;;;;;;;;;5249136;27;20038;-80
2024/04/20 05:04:52;;;;;;;16.58;5.43;;;;;;;;;;5249622;27;20026;-80
2024/04/20 05:07:22;;;;;;;11.98;5.47;;;;;;;;;;5250441;27;20328;-80
2024/04/20 05:09:52;;;;;;;11.40;5.18;;;;;;;;;;5280761;27;20023;-80
2024/04/20 05:12:22;;;;;;;14.70;5.18;;;;;;;;;;5280115;27;20022;-80
2024/04/20 05:14:52;;;;;;;11.27;5.43;;;;;;;;;;5216329;27;20042;-80
2024/04/20 05:17:22;;;;;;;13.60;5.28;;;;;;;;;;5216011;27;20031;-80
2024/04/20 05:19:53;;;;;;;14.73;5.10;;;;;;;;;;5246668;27;20023;-80
2024/04/20 05:22:23;;;;;;;12.70;4.70;;;;;;;;;;5246614;27;20454;-79
2024/04/20 05:24:53;;;;;;;11.38;4.90;;;;;;;;;;5246282;27;20018;-80
2024/04/20 05:27:23;;;;;;;12.73;5.40;;;;;;;;;;5216814;27;20023;-79
2024/04/20 05:29:53;;;;;;;11.13;5.43;;;;;;;;;;5246279;27;20028;-79
2024/04/20 05:32:23;;;;;;;14.90;5.95;;;;;;;;;;5246460;27;20478;-79
2024/04/20 05:34:53;;;;;;;12.80;5.25;;;;;;;;;;5217689;27;20451;-82
2024/04/20 05:37:24;;;;;;;11.00;4.85;;;;;;;;;;5216311;27;20027;-80
2024/04/20 05:39:54;;;;;;;11.25;5.13;;;;;;;;;;5246314;27;20027;-79
2024/04/20 05:42:27;;;;;;;11.77;5.60;;;;;;;;;;5218102;27;20019;-79
2024/04/20 05:44:58;;;;;;;10.80;5.13;;;;;;;;;;5246441;27;20487;-79
2024/04/20 05:47:28;;;;;;;12.27;5.28;;;;;;;;;;5246210;27;20027;-79
2024/04/20 05:49:58;;;;;;;11.40;4.93;;;;;;;;;;5246831;27;20024;-79
2024/04/20 05:52:28;;;;;;;12.55;5.18;;;;;;;;;;5217832;27;20023;-81
2024/04/20 05:54:59;;;;;;;11.15;5.53;;;;;;;;;;5217226;27;20371;-79
2024/04/20 05:57:29;;;;;;;11.98;5.38;;;;;;;;;;5246382;27;20024;-78
2024/04/20 06:00:00;;;;;;;12.30;5.30;;;;;;;;;;5246262;27;20023;-80
2024/04/20 06:02:38;;;;;;;;;;;;;;;;;;5247412;27;20035;-78
2024/04/20 06:05:09;;;;;;;9.30;4.65;;;;;;;;;;5245901;27;19952;-79
2024/04/20 06:07:39;;;;;;;11.90;5.25;;;;;;;;;;5217535;27;20031;-79
2024/04/20 06:10:10;;;;;;;12.02;5.40;;;;;;;;;;5246659;27;20019;-81
2024/04/20 06:12:40;;;;;;;15.90;5.55;;;;;;;;;;5245823;27;20471;-79
2024/04/20 06:15:11;;;;;;;12.55;5.30;;;;;;;;;;5245848;27;20023;-80
2024/04/20 06:17:41;;;;;;;12.02;5.10;;;;;;;;;;5246024;27;20019;-80
2024/04/20 06:20:11;;;;;;;9.93;4.80;;;;;;;;;;5218835;27;20030;-80
2024/04/20 06:22:40;;;;;;;10.07;4.30;;;;;;;;;;5226958;27;20028;-80
2024/04/20 06:25:11;;;;;;;10.60;4.75;;;;;;;;;;5224452;27;20031;-81
2024/04/20 06:27:42;;;;;;;12.45;5.15;;;;;;;;;;5217306;27;20031;-79
2024/04/20 06:30:13;;;;;;;10.35;4.22;;;;;;;;;;5245558;27;20019;-80
2024/04/20 06:32:43;;;;;;;11.98;5.15;;;;;;;;;;5217103;27;20019;-81
2024/04/20 06:35:16;;;;;;;12.77;5.07;;;;;;;;;;5217594;27;20031;-80
2024/04/20 06:37:46;;;;;;;10.25;5.20;;;;;;;;;;5245885;27;20031;-80
2024/04/20 06:40:16;;;;;;;9.68;4.70;;;;;;;;;;5245370;27;20031;-80
2024/04/20 06:42:48;;;;;;;12.90;4.97;;;;;;;;;;5216796;27;20022;-79
2024/04/20 06:45:18;;;;;;;10.30;5.00;;;;;;;;;;5246086;27;20466;-79
2024/04/20 06:47:48;;;;;;;14.02;4.32;;;;;;;;;;5216571;27;20377;-81
2024/04/20 06:50:20;;;;;;;11.93;4.80;;;;;;;;;;5217010;27;20019;-79
2024/04/20 06:52:51;;;;;;;12.60;4.72;;;;;;;;;;5216856;27;20047;-79
2024/04/20 06:55:21;;;;;;;10.45;4.65;;;;;;;;;;5245220;27;20019;-80
2024/04/20 06:57:52;;;;;;;9.98;4.85;;;;;;;;;;5245089;27;20334;-80
2024/04/20 07:00:22;;;;;;;11.57;4.70;;;;;;;;;;5214562;27;20023;-80
2024/04/20 07:02:52;;;;;;;9.82;4.50;;;;;;;;;;5245157;27;20023;-80
2024/04/20 07:05:22;;;;;;;11.45;4.93;;;;;;;;;;5245187;27;20019;-79
2024/04/20 07:07:52;;;;;;;8.55;4.38;;;;;;;;;;5216328;27;20529;-81
2024/04/20 07:10:22;;;;;;;12.98;4.90;;;;;;;;;;5215413;27;20032;-79
2024/04/20 07:12:53;;;;;;;12.35;5.00;;;;;;;;;;5216664;27;20027;-79
2024/04/20 07:15:23;;;;;;;10.05;4.30;;;;;;;;;;5244877;27;20023;-80
2024/04/20 07:17:53;;;;;;;13.57;5.75;;;;;;;;;;5245122;27;20031;-79
2024/04/20 07:20:24;;;;;;;9.82;4.68;;;;;;;;;;5216536;27;20041;-80
2024/04/20 07:22:56;;;;;;;10.18;4.70;;;;;;;;;;5245041;27;20454;-80
2024/04/20 07:25:26;;;;;;;11.20;4.55;;;;;;;;;;5245105;27;20462;-79
2024/04/20 07:27:56;;;;;;;12.70;4.95;;;;;;;;;;5244855;27;20019;-81
2024/04/20 07:30:26;;;;;;;10.32;5.50;;;;;;;;;;5244538;27;20353;-82
2024/04/20 07:32:56;;;;;;;11.02;5.22;;;;;;;;;;5243285;27;20035;-79
2024/04/20 07:35:27;;;;;;;13.82;5.00;;;;;;;;;;5214301;27;20027;-81
2024/04/20 07:37:57;;;;;;;10.75;4.72;;;;;;;;;;5244782;27;20474;-79
2024/04/20 07:40:27;;;;;;;11.63;4.80;;;;;;;;;;5214538;27;20142;-79
2024/04/20 07:42:57;;;;;;;12.57;4.93;;;;;;;;;;5216110;27;20023;-79
2024/04/20 07:45:27;;;;;;;10.93;5.07;;;;;;;;;;5216057;27;20019;-79
2024/04/20 07:48:00;;;;;;;10.40;4.78;;;;;;;;;;5215055;27;20023;-80
2024/04/20 07:50:31;;;;;;;10.95;4.47;;;;;;;;;;5244714;27;20027;-80
2024/04/20 07:53:01;;;;;;;8.80;4.40;;;;;;;;;;5244369;27;20028;-80
2024/04/20 07:55:30;;;;;;;12.70;4.72;;;;;;;;;;5244323;27;20022;-79
2024/04/20 07:58:00;;;;;;;11.98;5.47;;;;;;;;;;5244361;27;20344;-80
2024/04/20 08:00:31;;;;;;;10.70;5.10;;;;;;;;;;5188867;27;20075;-79
2024/04/20 08:03:01;;;;;;;13.07;5.82;;;;;;;;;;5244246;27;20375;-79
2024/04/20 08:05:31;;;;;;;13.77;5.80;;;;;;;;;;5244366;27;20027;-79
2024/04/20 08:08:01;;;;;;;15.02;5.63;;;;;;;;;;5244143;27;20022;-79
2024/04/20 08:10:31;;;;;;;11.45;5.32;;;;;;;;;;5244581;27;20035;-80
2024/04/20 08:13:02;;;;;;;16.80;5.85;;;;;;;;;;5216916;27;20028;-79
2024/04/20 08:15:32;;;;;;;16.27;6.53;;;;;;;;;;5218884;27;20019;-80
2024/04/20 08:18:02;;;;;;;16.25;5.80;;;;;;;;;;5247553;27;20023;-80
2024/04/20 08:20:32;;;;;;;13.95;5.80;;;;;;;;;;5247070;27;20028;-80
2024/04/20 08:23:02;;;;;;;15.63;5.95;;;;;;;;;;5247106;27;20031;-80
2024/04/20 08:25:32;;;;;;;20.67;7.05;;;;;;;;;;5217607;27;20375;-79
2024/04/20 08:28:02;;;;;;;13.85;5.15;;;;;;;;;;5218475;27;20023;-78
2024/04/20 08:30:32;;;;;;;14.40;5.35;;;;;;;;;;5247125;27;20032;-80
2024/04/20 08:33:02;;;;;;;9.60;4.60;;;;;;;;;;5218357;27;20336;-77
2024/04/20 08:35:32;;;;;;;13.75;5.30;;;;;;;;;;5247169;27;20474;-79
2024/04/20 08:38:05;;;;;;;12.77;5.43;;;;;;;;;;5247156;27;20470;-79
2024/04/20 08:40:37;;;;;;;9.45;4.53;;;;;;;;;;5246933;27;20366;-78
2024/04/20 08:43:08;;;;;;;9.50;4.18;;;;;;;;;;5246966;27;20023;-79
2024/04/20 08:45:42;;;;;;;12.55;4.93;;;;;;;;;;5217311;27;20026;-79
2024/04/20 08:48:15;;;;;;;11.80;5.30;;;;;;;;;;5246826;27;20028;-79
2024/04/20 08:50:47;;;;;;;16.13;5.95;;;;;;;;;;5217586;27;20023;-79
2024/04/20 08:53:19;;;;;;;13.88;5.40;;;;;;;;;;5217678;27;20019;-78
2024/04/20 08:55:49;;;;;;;13.48;5.80;;;;;;;;;;5217354;27;20040;-80
2024/04/20 08:58:19;;;;;;;16.40;5.53;;;;;;;;;;5233816;27;20482;-79
2024/04/20 09:00:51;;;;;;;12.38;5.65;;;;;;;;;;5216968;27;20027;-79
2024/04/20 09:03:22;;;;;;;13.15;5.85;;;;;;;;;;5246760;27;20028;-79
2024/04/20 09:05:55;;;;;;;16.20;6.10;;;;;;;;;;5217390;27;20026;-78
2024/04/20 09:08:26;;;;;;;13.77;5.18;;;;;;;;;;5217683;27;20023;-80
2024/04/20 09:10:58;;;;;;;13.27;5.45;;;;;;;;;;5246591;27;20095;-79
2024/04/20 09:13:28;;;;;;;14.68;5.82;;;;;;;;;;5246488;27;20373;-80
2024/04/20 09:15:59;;;;;;;10.32;4.72;;;;;;;;;;5218091;27;20023;-80
2024/04/20 09:18:30;;;;;;;16.13;6.95;;;;;;;;;;5246110;27;20369;-78
2024/04/20 09:21:00;;;;;;;13.80;5.72;;;;;;;;;;5217048;27;20023;-80
2024/04/20 09:23:30;;;;;;;15.23;6.75;;;;;;;;;;5216398;27;20369;-80
2024/04/20 09:26:00;;;;;;;16.38;5.93;;;;;;;;;;5242896;27;20038;-78
2024/04/20 09:28:35;;;;;;;13.25;5.53;;;;;;;;;;5246172;27;20046;-79
2024/04/20 09:31:06;;;;;;;16.05;5.60;;;;;;;;;;5246273;27;20279;-79
2024/04/20 09:33:36;;;;;;;11.63;4.82;;;;;;;;;;5196076;27;20040;-79
2024/04/20 09:36:07;;;;;;;11.48;4.53;;;;;;;;;;5216245;27;20048;-80
2024/04/20 09:38:37;;;;;;;13.98;4.82;;;;;;;;;;5214452;27;20080;-79
2024/04/20 09:41:09;;;;;;;13.15;4.75;;;;;;;;;;5245699;27;20039;-78
2024/04/20 09:43:46;;;;;;;12.15;4.95;;;;;;;;;;5245511;27;20027;-79
2024/04/20 09:46:16;;;;;;;13.52;5.43;;;;;;;;;;5245939;27;20023;-81
2024/04/20 09:48:48;;;;;;;12.13;4.80;;;;;;;;;;5245650;27;20039;-80
2024/04/20 09:51:23;;;;;;;10.50;4.90;;;;;;;;;;5246320;27;20365;-79
2024/04/20 09:53:55;;;;;;;12.63;5.22;;;;;;;;;;5246020;27;20019;-80
2024/04/20 09:56:27;;;;;;;12.77;5.18;;;;;;;;;;5245848;27;20031;-78
2024/04/20 09:59:00;;;;;;;12.18;5.30;;;;;;;;;;5217389;27;20022;-78
2024/04/20 10:01:31;;;;;;;13.65;5.50;;;;;;;;;;5246196;27;20032;-79
2024/04/20 10:04:02;;;;;;;11.23;4.45;;;;;;;;;;5245975;27;20035;-79
2024/04/20 10:06:34;;;;;;;12.27;5.28;;;;;;;;;;5246264;27;20349;-78
2024/04/20 10:09:07;;;;;;;12.18;5.15;;;;;;;;;;5216146;27;20362;-79
2024/04/20 10:11:38;;;;;;;10.10;4.53;;;;;;;;;;5246073;27;20034;-79
2024/04/20 10:14:08;;;;;;;12.23;4.35;;;;;;;;;;5245787;27;20035;-79
2024/04/20 10:16:40;;;;;;;12.90;4.78;;;;;;;;;;5216681;27;20032;-79
2024/04/20 10:19:10;;;;;;;11.95;4.50;;;;;;;;;;5217071;27;20031;-80
2024/04/20 10:21:41;;;;;;;10.55;5.15;;;;;;;;;;5245652;27;20375;-79
2024/04/20 10:24:14;;;;;;;12.43;4.65;;;;;;;;;;5245568;27;20023;-79
2024/04/20 10:26:47;;;;;;;13.30;4.68;;;;;;;;;;5245201;27;20039;-80
2024/04/20 10:29:20;;;;;;;16.33;5.50;;;;;;;;;;5245853;27;20031;-78
2024/04/20 10:32:02;;;;;;;12.63;4.90;;;;;;;;;;5250815;27;19999;-79
2024/04/20 10:34:32;;;;;;;11.98;5.60;;;;;;;;;;5256175;27;19999;-79
2024/04/20 10:37:02;;;;;;;15.18;5.40;;;;;;;;;;5281415;27;20031;-80
2024/04/20 10:39:34;;;;;;;16.73;5.50;;;;;;;;;;5249240;27;20453;-79
2024/04/20 10:42:10;;;;;;;10.57;4.90;;;;;;;;;;5278901;27;20090;-79
2024/04/20 10:44:41;;;;;;;11.60;4.70;;;;;;;;;;5250079;27;20034;-78
2024/04/20 10:47:21;;;;;;;11.43;4.88;;;;;;;;;;5278999;27;20018;-79
2024/04/20 10:49:51;;;;;;;9.70;4.43;;;;;;;;;;5247785;27;20481;-79
2024/04/20 10:52:21;;;;;;;11.25;4.45;;;;;;;;;;5278573;27;20042;-78
2024/04/20 10:54:51;;;;;;;9.05;4.50;;;;;;;;;;5249623;27;20030;-79
2024/04/20 10:57:24;;;;;;;17.95;5.13;;;;;;;;;;5248179;27;20093;-78
2024/04/20 10:59:55;;;;;;;65.30;23.27;;;;;;;;;;5278851;27;20018;-78
2024/04/20 11:02:26;;;;;;;99.90;38.75;;;;;;;;;;5278749;27;20010;-78
2024/04/20 11:04:58;;;;;;;95.57;36.78;;;;;;;;;;5278780;27;20022;-79
2024/04/20 11:07:28;;;;;;;70.32;28.63;;;;;;;;;;5210062;27;20074;-78
2024/04/20 11:09:58;;;;;;;30.40;12.88;;;;;;;;;;5209059;27;20028;-79
2024/04/20 11:12:29;;;;;;;22.60;9.95;;;;;;;;;;5219242;27;20414;-79
2024/04/20 11:15:03;;;;;;;31.58;13.77;;;;;;;;;;5255099;27;20030;-78
2024/04/20 11:17:37;;;;;;;29.35;11.55;;;;;;;;;;5235712;27;20035;-80
2024/04/20 11:20:08;;;;;;;33.50;13.45;;;;;;;;;;5213639;27;20039;-78
2024/04/20 11:22:38;;;;;;;63.70;24.38;;;;;;;;;;5239708;27;20051;-79
2024/04/20 11:25:10;;;;;;;31.88;13.02;;;;;;;;;;5243212;27;20039;-79
2024/04/20 11:27:43;;;;;;;29.60;12.00;;;;;;;;;;5187471;27;20047;-78
2024/04/20 11:30:14;;;;;;;41.00;15.88;;;;;;;;;;5254113;27;20043;-78
2024/04/20 11:32:54;;;;;;;23.48;11.50;;;;;;;;;;5219535;27;20485;-79
2024/04/20 11:35:25;;;;;;;26.05;10.70;;;;;;;;;;5247896;27;20030;-78
2024/04/20 11:38:06;;;;;;;14.93;7.72;;;;;;;;;;5276742;27;20031;-78
2024/04/20 11:40:36;;;;;;;16.98;6.40;;;;;;;;;;5276608;27;20034;-80
2024/04/20 11:43:06;;;;;;;12.80;6.10;;;;;;;;;;5275331;27;20030;-79
2024/04/20 11:45:50;;;;;;;11.02;5.70;;;;;;;;;;5259003;27;20081;-78
2024/04/20 11:48:27;;;;;;;13.10;5.95;;;;;;;;;;5244982;27;20023;-79
2024/04/20 11:51:05;;;;;;;12.90;5.10;;;;;;;;;;5215730;27;20487;-79
2024/04/20 11:56:24;;;;;;;16.35;6.57;;;;;;;;;;5244743;27;20019;-80
2024/04/20 11:58:57;;;;;;;16.25;7.18;;;;;;;;;;5244566;27;20349;-79
2024/04/20 12:01:28;;;;;;;11.32;4.18;;;;;;;;;;5243927;27;20474;-79
2024/04/20 12:03:58;;;;;;;6.40;3.10;;;;;;;;;;5243186;27;20373;-80
2024/04/20 12:06:28;;;;;;;11.35;4.20;;;;;;;;;;5244019;27;20466;-78
2024/04/20 12:08:58;;;;;;;6.53;2.22;;;;;;;;;;5215260;27;20018;-81
2024/04/20 12:11:28;;;;;;;5.15;2.10;;;;;;;;;;5244085;27;20035;-80
2024/04/20 12:13:58;;;;;;;9.05;2.70;;;;;;;;;;5243752;27;20031;-79
2024/04/20 12:16:28;;;;;;;4.60;1.70;;;;;;;;;;5214632;27;20040;-80
2024/04/20 12:18:58;;;;;;;4.57;1.77;;;;;;;;;;5243630;27;20028;-79
2024/04/20 12:21:29;;;;;;;3.58;1.92;;;;;;;;;;5244044;27;20031;-79
2024/04/20 12:34:45;;;;;;;4.20;1.95;;;;;;;;;;5399879;26;20373;-83
2024/04/20 12:37:19;;;;;;;3.75;1.80;;;;;;;;;;5401275;26;20016;-83
2024/04/20 12:39:49;;;;;;;3.63;1.88;;;;;;;;;;5399230;26;20508;-81
2024/04/20 12:42:19;;;;;;;5.82;1.67;;;;;;;;;;5400798;26;20449;-82
2024/04/20 12:44:59;;;;;;;4.68;1.90;;;;;;;;;;5377567;26;20040;-81
2024/04/20 12:47:33;;;;;;;3.10;1.50;;;;;;;;;;5395970;26;20028;-81
2024/04/20 12:50:04;;;;;;;2.97;2.03;;;;;;;;;;5409305;26;20403;-80
2024/04/20 12:52:34;;;;;;;3.92;1.70;;;;;;;;;;5411623;26;20450;-81
2024/04/20 12:55:05;;;;;;;4.50;1.98;;;;;;;;;;5416482;26;20028;-81
2024/04/20 12:57:37;;;;;;;7.55;1.95;;;;;;;;;;5420120;26;20044;-81
2024/04/20 13:00:07;;;;;;;3.67;1.63;;;;;;;;;;5422493;26;20023;-81
2024/04/20 13:02:37;;;;;;;6.03;1.98;;;;;;;;;;5433414;26;20027;-82
2024/04/20 13:05:09;;;;;;;3.90;1.90;;;;;;;;;;5433273;26;20031;-82
2024/04/20 13:07:40;;;;;;;5.97;1.70;;;;;;;;;;5416678;26;20044;-84
2024/04/20 13:10:10;;;;;;;4.80;1.75;;;;;;;;;;5400545;26;20431;-84
2024/04/20 13:12:40;;;;;;;3.63;1.73;;;;;;;;;;5399919;26;20149;-83
2024/04/20 13:15:10;;;;;;;4.72;2.05;;;;;;;;;;5399894;26;20020;-83
2024/04/20 13:17:40;;;;;;;11.00;2.20;;;;;;;;;;5400006;26;20016;-84
2024/04/20 13:20:11;;;;;;;4.38;1.98;;;;;;;;;;5399909;26;20026;-83
2024/04/20 13:22:40;;;;;;;8.18;2.40;;;;;;;;;;5398236;26;20025;-84
2024/04/20 13:25:10;;;;;;;6.53;2.00;;;;;;;;;;5399822;26;20028;-84
2024/04/20 13:27:40;;;;;;;6.68;1.92;;;;;;;;;;5398691;26;20020;-83
2024/04/20 13:30:11;;;;;;;6.10;2.05;;;;;;;;;;5399574;26;20016;-84
2024/04/20 13:32:41;;;;;;;4.90;1.83;;;;;;;;;;5400006;26;20016;-85
2024/04/20 13:35:25;;;;;;;5.47;1.70;;;;;;;;;;5384871;26;20021;-84
2024/04/20 13:37:55;;;;;;;4.03;1.92;;;;;;;;;;5384319;26;20020;-84
2024/04/20 13:40:25;;;;;;;7.10;2.03;;;;;;;;;;5384719;26;20469;-84
2024/04/20 13:42:55;;;;;;;3.75;2.08;;;;;;;;;;5384171;26;20131;-82
2024/04/20 13:45:26;;;;;;;3.97;1.67;;;;;;;;;;5384348;26;20367;-85
2024/04/20 13:47:58;;;;;;;3.72;1.58;;;;;;;;;;5384196;26;20033;-84
2024/04/20 13:50:36;;;;;;;4.85;1.73;;;;;;;;;;5381085;26;20462;-84
2024/04/20 13:53:06;;;;;;;3.97;1.60;;;;;;;;;;5382472;26;20024;-83
2024/04/20 13:55:36;;;;;;;3.50;1.52;;;;;;;;;;5384016;26;20025;-84
2024/04/20 13:58:07;;;;;;;4.07;1.55;;;;;;;;;;5383849;26;20020;-83
2024/04/20 14:00:43;;;;;;;3.70;2.00;;;;;;;;;;5383784;26;20033;-84
2024/04/20 14:03:14;;;;;;;5.65;1.95;;;;;;;;;;5383605;26;20020;-84
2024/04/20 14:05:48;;;;;;;4.95;1.70;;;;;;;;;;5383966;26;20466;-84
2024/04/20 14:08:19;;;;;;;3.70;1.63;;;;;;;;;;5382626;26;20021;-84
2024/04/20 14:11:03;;;;;;;5.82;1.90;;;;;;;;;;5388106;26;20000;-86
2024/04/20 14:13:34;;;;;;;5.55;2.78;;;;;;;;;;5405895;26;19988;-85
2024/04/20 14:16:04;;;;;;;8.63;1.90;;;;;;;;;;5406225;26;19988;-84
2024/04/20 14:18:34;;;;;;;6.05;2.00;;;;;;;;;;5406200;26;19993;-83
2024/04/20 14:21:05;;;;;;;5.00;1.95;;;;;;;;;;5406160;26;19995;-84
2024/04/20 14:23:36;;;;;;;3.45;2.00;;;;;;;;;;5405741;26;20003;-83
2024/04/20 14:26:08;;;;;;;5.22;2.60;;;;;;;;;;5406018;26;19992;-83
2024/04/20 14:28:42;;;;;;;6.00;2.28;;;;;;;;;;5384164;26;20029;-84
2024/04/20 14:31:12;;;;;;;4.78;1.70;;;;;;;;;;5384104;26;20024;-84
2024/04/20 14:33:42;;;;;;;6.30;2.65;;;;;;;;;;5384030;26;20020;-83
2024/04/20 14:36:14;;;;;;;3.70;1.73;;;;;;;;;;5383563;26;20020;-83
2024/04/20 14:38:45;;;;;;;3.25;1.80;;;;;;;;;;5383500;26;20017;-84
2024/04/20 14:41:15;;;;;;;3.80;1.95;;;;;;;;;;5381140;26;20020;-82
2024/04/20 14:43:45;;;;;;;4.50;1.83;;;;;;;;;;5383695;26;20008;-83
2024/04/20 14:46:15;;;;;;;4.75;1.95;;;;;;;;;;5382086;26;20016;-83
2024/04/20 14:48:47;;;;;;;3.55;2.10;;;;;;;;;;5383858;26;20477;-84
2024/04/20 14:51:17;;;;;;;4.25;1.70;;;;;;;;;;5384252;26;20358;-83
2024/04/20 14:53:48;;;;;;;5.40;2.05;;;;;;;;;;5383080;26;20024;-83
2024/04/20 14:56:19;;;;;;;5.53;1.73;;;;;;;;;;5383643;26;20020;-84
2024/04/20 14:58:51;;;;;;;2.83;1.73;;;;;;;;;;5383386;26;20127;-83
2024/04/20 15:01:21;;;;;;;4.57;1.52;;;;;;;;;;5383302;26;20016;-85
2024/04/20 15:03:52;;;;;;;7.45;2.03;;;;;;;;;;5383263;26;20017;-83
2024/04/20 15:06:22;;;;;;;3.25;1.55;;;;;;;;;;5383530;26;20016;-85
2024/04/20 15:08:52;;;;;;;4.07;1.63;;;;;;;;;;5383247;26;20513;-84